Simoca, Argentina
Current Conditions -  °F | °C
As of 4:00 PM on Friday 31 Oct 2014 (Local Time) from SANT Reporting Station
Scattered Clouds Scattered Clouds  
Wind Chill: 88°   Ceiling: Unl
Heat Index: 91°   Visibility: 6mi
Dew Point: 68°   Wind: 8mph
Humidity: 52%   Direction: 180°S
Pressure: 29.77"   Gusts: NA
Location:  27.27°S, 65.35°W
Report Text: SANT 311900Z 18007KT 9000 SCT030 SCT040TCU 31/20 Q1008
Loading
Personal Weather Stations






























Interactive Weather Map
Tropical Storm Tracking
New forecast layout! Learn more

10-Day Weather Forecast

Advertisements
Track Severe Weather on mobile